Time;durP1;ratioP1;P1;durP2;ratioP2;P2;SDS_P1;SDS_P2;PMS_P1;PMS_P2;Temp;Humidity;BMP_temperature;BMP_pressure;BME280_temperature;BME280_humidity;BME280_pressure;Samples;Min_cycle;Max_cycle;Signal;HPM_P1;HPM_P2
2022/01/28 00:01:01;;;;;;;14.05;9.60;;;;;;;3.30;80.44;101119.34;1087246;54;20149;-80
2022/01/28 00:02:13;;;;;;;14.88;10.55;;;;;;;3.36;80.22;101124.34;1087484;54;20700;-80
2022/01/28 00:03:17;;;;;;;13.00;9.43;;;;;;;3.24;80.80;101115.22;1087790;39;20520;-80
2022/01/28 00:04:19;;;;;;;14.10;10.45;;;;;;;3.36;80.38;101119.06;1087224;54;20039;-81
2022/01/28 00:05:24;;;;;;;13.73;9.82;;;;;;;3.49;79.96;101114.06;1087334;54;20053;-81
2022/01/28 00:06:28;;;;;;;12.93;9.00;;;;;;;3.58;79.89;101120.69;1087514;54;20026;-81
2022/01/28 00:07:29;;;;;;;13.75;10.13;;;;;;;3.49;79.73;101123.78;1087461;54;20035;-81
2022/01/28 00:08:36;;;;;;;13.18;9.48;;;;;;;3.40;80.01;101127.72;1089270;46;20043;-80
2022/01/28 00:09:37;;;;;;;16.20;10.75;;;;;;;3.39;80.12;101123.38;1087370;54;20030;-82
2022/01/28 00:10:42;;;;;;;15.45;10.65;;;;;;;3.38;80.07;101116.34;1087300;54;20046;-80
2022/01/28 00:11:43;;;;;;;13.93;9.73;;;;;;;3.48;79.96;101120.28;1087530;54;20030;-80
2022/01/28 00:14:15;;;;;;;14.18;10.18;;;;;;;3.37;80.01;101122.56;1088098;54;20038;-81
2022/01/28 00:15:22;;;;;;;14.27;10.13;;;;;;;3.41;79.66;101121.47;1088558;46;20038;-81
2022/01/28 00:16:57;;;;;;;14.65;10.38;;;;;;;3.30;79.96;101123.78;1087978;54;20740;-81
2022/01/28 00:20:02;;;;;;;18.08;11.23;;;;;;;3.42;80.02;101126.72;1086605;54;20042;-81
2022/01/28 00:36:47;;;;;;;14.35;10.02;;;;;;;3.33;80.16;101134.19;1086883;39;20448;-80
2022/01/28 00:38:02;;;;;;;16.13;10.85;;;;;;;3.23;80.37;101139.06;1086506;54;20086;-80
2022/01/28 00:39:09;;;;;;;16.90;11.95;;;;;;;3.22;80.39;101142.63;1087272;39;20453;-82
2022/01/28 00:40:11;;;;;;;16.13;11.35;;;;;;;3.19;80.57;101142.78;1087216;54;20049;-80
2022/01/28 00:41:15;;;;;;;15.73;12.05;;;;;;;3.11;80.92;101149.28;1087309;46;20030;-80
2022/01/28 00:42:17;;;;;;;15.82;10.70;;;;;;;3.24;80.61;101135.50;1086858;54;20421;-81
2022/01/28 00:43:21;;;;;;;16.02;10.52;;;;;;;3.32;80.43;101136.00;1086545;54;20049;-80
2022/01/28 00:44:23;;;;;;;16.17;10.90;;;;;;;3.14;80.88;101132.41;1086987;54;20026;-80
2022/01/28 00:45:28;;;;;;;15.95;11.23;;;;;;;3.20;80.63;101129.50;1087094;54;20061;-80
2022/01/28 00:46:31;;;;;;;17.35;11.38;;;;;;;3.22;80.77;101134.72;1086877;54;20031;-80
2022/01/28 00:47:35;;;;;;;16.38;10.82;;;;;;;3.25;80.64;101132.78;1087544;46;20034;-80
2022/01/28 00:48:40;;;;;;;15.85;11.38;;;;;;;3.13;80.91;101133.34;1087134;46;20030;-80
2022/01/28 00:49:41;;;;;;;14.68;10.38;;;;;;;3.16;80.95;101133.22;1086797;54;20034;-81
2022/01/28 00:50:45;;;;;;;15.45;10.40;;;;;;;3.25;80.89;101126.66;1086556;54;20022;-81
2022/01/28 00:51:47;;;;;;;15.55;10.48;;;;;;;3.40;80.22;101131.22;1086441;54;20034;-80
2022/01/28 00:52:51;;;;;;;14.20;10.07;;;;;;;3.31;80.33;101126.34;1086559;54;20076;-80
2022/01/28 00:53:53;;;;;;;17.88;10.55;;;;;;;3.19;80.58;101138.34;1087929;46;20031;-80
2022/01/28 00:54:59;;;;;;;16.63;11.23;;;;;;;3.19;80.93;101137.47;1086528;46;20041;-81
2022/01/28 00:56:03;;;;;;;14.05;9.70;;;;;;;3.32;80.52;101140.41;1086709;46;20057;-79
2022/01/28 00:57:05;;;;;;;14.93;10.20;;;;;;;3.26;80.63;101139.78;1086937;54;20038;-80
2022/01/28 00:58:09;;;;;;;13.55;9.63;;;;;;;3.37;80.51;101141.06;1087847;39;20552;-80
2022/01/28 00:59:11;;;;;;;15.07;10.40;;;;;;;3.33;80.66;101145.66;1086920;54;20026;-80
2022/01/28 01:00:16;;;;;;;13.80;10.45;;;;;;;3.43;79.95;101143.41;1091297;39;20607;-81
2022/01/28 01:01:17;;;;;;;14.23;10.00;;;;;;;3.38;80.21;101137.50;1087902;46;20033;-81
2022/01/28 01:02:21;;;;;;;13.70;9.85;;;;;;;3.43;80.21;101138.13;1087011;54;20065;-80
2022/01/28 01:03:23;;;;;;;15.80;11.25;;;;;;;3.36;80.11;101139.34;1086801;54;20042;-80
2022/01/28 01:04:27;;;;;;;12.65;9.75;;;;;;;3.41;80.15;101150.56;1086915;54;20038;-81
2022/01/28 01:05:34;;;;;;;12.70;9.82;;;;;;;3.31;80.09;101155.44;1087227;54;20058;-81
2022/01/28 01:06:36;;;;;;;17.13;9.95;;;;;;;3.28;80.37;101152.91;1088223;46;20502;-80
2022/01/28 01:07:40;;;;;;;13.13;9.75;;;;;;;3.37;79.94;101147.22;1086829;54;20042;-80
2022/01/28 01:08:41;;;;;;;13.35;9.30;;;;;;;3.41;79.83;101153.19;1086861;54;20038;-80
2022/01/28 01:09:48;;;;;;;14.02;9.43;;;;;;;3.34;79.89;101141.22;1086927;54;20046;-80
2022/01/28 01:10:55;;;;;;;14.07;9.60;;;;;;;3.34;79.89;101146.50;1088447;39;20563;-81
2022/01/28 01:11:56;;;;;;;13.32;9.60;;;;;;;3.45;79.82;101146.84;1087231;54;20053;-80
2022/01/28 01:13:01;;;;;;;14.38;9.85;;;;;;;3.50;79.55;101155.41;1087051;54;20060;-80
2022/01/28 01:14:02;;;;;;;12.43;9.18;;;;;;;3.54;79.35;101164.94;1087305;39;20086;-81
2022/01/28 01:15:08;;;;;;;14.15;9.10;;;;;;;3.58;79.22;101157.72;1087431;39;20477;-81
2022/01/28 01:16:12;;;;;;;14.63;9.32;;;;;;;3.52;79.43;101156.22;1086991;46;20569;-80
2022/01/28 01:17:27;;;;;;;14.15;9.55;;;;;;;3.44;79.35;101163.66;1087697;54;20085;-80
2022/01/28 01:18:37;;;;;;;12.07;8.50;;;;;;;3.58;79.02;101163.88;1087471;54;20046;-80
2022/01/28 01:19:40;;;;;;;12.93;9.40;;;;;;;3.55;79.00;101165.78;1087666;54;20065;-80
2022/01/28 01:21:01;;;;;;;14.48;10.07;;;;;;;3.42;79.15;101165.50;1091196;39;20456;-81
2022/01/28 01:22:03;;;;;;;15.77;10.15;;;;;;;3.38;79.56;101175.34;1087207;54;20065;-81
2022/01/28 01:23:11;;;;;;;13.93;9.60;;;;;;;3.37;79.58;101178.09;1086804;54;20042;-80
2022/01/28 01:24:21;;;;;;;13.75;9.55;;;;;;;3.40;79.25;101177.94;1086922;54;20082;-81
2022/01/28 01:25:28;;;;;;;16.50;10.80;;;;;;;3.30;79.67;101172.22;1087199;54;20035;-80
2022/01/28 01:26:34;;;;;;;14.88;9.52;;;;;;;3.35;79.52;101170.25;1087752;39;20457;-81
2022/01/28 01:27:38;;;;;;;12.93;8.93;;;;;;;3.40;79.58;101177.94;1087603;46;20066;-81
2022/01/28 01:28:44;;;;;;;13.68;9.65;;;;;;;3.43;79.35;101183.97;1087029;54;20052;-80
2022/01/28 01:29:46;;;;;;;15.15;9.80;;;;;;;3.31;79.56;101183.66;1087386;46;20045;-80
2022/01/28 01:30:50;;;;;;;15.30;10.35;;;;;;;3.26;79.66;101182.06;1088441;39;20516;-80
2022/01/28 01:32:00;;;;;;;15.70;10.50;;;;;;;3.28;79.54;101182.88;1087676;39;20524;-80
2022/01/28 01:33:04;;;;;;;16.67;9.60;;;;;;;3.31;79.53;101178.38;1086948;54;20022;-81
2022/01/28 01:34:12;;;;;;;15.02;10.52;;;;;;;3.30;79.73;101181.94;1087473;39;20433;-81
2022/01/28 01:35:16;;;;;;;15.75;10.75;;;;;;;3.31;79.56;101179.22;1087193;54;20038;-79
2022/01/28 01:36:17;;;;;;;13.50;9.27;;;;;;;3.34;79.36;101176.44;1087108;54;20061;-79
2022/01/28 01:37:21;;;;;;;13.50;9.88;;;;;;;3.25;79.77;101190.94;1086981;54;20069;-80
2022/01/28 01:38:26;;;;;;;17.33;10.57;;;;;;;3.30;79.93;101180.16;1088998;46;20056;-79
2022/01/28 01:39:34;;;;;;;16.10;9.43;;;;;;;3.34;79.67;101186.16;1087122;54;20060;-80
2022/01/28 01:40:42;;;;;;;13.32;9.60;;;;;;;3.32;79.64;101180.06;1087244;54;20058;-80
2022/01/28 01:41:55;;;;;;;14.95;9.98;;;;;;;3.40;79.41;101189.38;1086899;54;20380;-80
2022/01/28 01:43:08;;;;;;;14.43;10.50;;;;;;;3.46;79.35;101192.66;1087018;54;20034;-80
2022/01/28 01:44:21;;;;;;;14.63;9.95;;;;;;;3.40;79.06;101202.59;1087744;54;20042;-80
2022/01/28 01:46:47;;;;;;;17.92;11.88;;;;;;;3.33;79.65;101202.94;1087727;54;20614;-81
2022/01/28 01:53:03;;;;;;;13.88;9.52;;;;;;;3.45;79.32;101207.66;1088031;54;20026;-81
2022/01/28 01:54:05;;;;;;;14.82;10.32;;;;;;;3.54;78.70;101203.75;1087978;54;20015;-80
2022/01/28 01:55:10;;;;;;;12.48;9.23;;;;;;;3.53;78.75;101194.94;1089221;39;20422;-80
2022/01/28 01:56:12;;;;;;;15.90;10.45;;;;;;;3.42;78.98;101205.16;1087910;54;20106;-81
2022/01/28 01:57:20;;;;;;;13.85;9.70;;;;;;;3.44;79.24;101200.66;1087869;54;20607;-81
2022/01/28 01:58:25;;;;;;;14.80;10.32;;;;;;;3.34;79.42;101200.25;1088392;39;20602;-82
2022/01/28 01:59:29;;;;;;;14.05;9.85;;;;;;;3.26;79.88;101213.78;1087939;54;20067;-81
2022/01/28 02:00:31;;;;;;;14.43;10.52;;;;;;;3.21;79.90;101210.47;1087854;54;20030;-81
2022/01/28 02:01:35;;;;;;;14.15;9.95;;;;;;;3.38;79.54;101208.88;1087673;54;20034;-81
2022/01/28 02:02:39;;;;;;;14.68;10.25;;;;;;;3.16;80.08;101209.84;1087833;54;20663;-81
2022/01/28 02:03:40;;;;;;;14.55;10.50;;;;;;;3.23;80.11;101223.66;1087525;54;20038;-80
2022/01/28 02:04:44;;;;;;;17.02;11.05;;;;;;;3.20;79.72;101221.13;1091277;39;20348;-80
2022/01/28 02:05:46;;;;;;;14.90;10.55;;;;;;;3.14;80.07;101214.31;1090162;47;20041;-80
2022/01/28 02:06:50;;;;;;;15.07;10.95;;;;;;;3.18;80.09;101221.22;1087781;54;20042;-80
2022/01/28 02:07:52;;;;;;;14.82;11.02;;;;;;;3.26;80.03;101223.50;1087583;54;20034;-80
2022/01/28 02:08:56;;;;;;;13.77;9.93;;;;;;;3.31;79.90;101220.66;1087889;54;20642;-81
2022/01/28 02:09:58;;;;;;;15.65;10.00;;;;;;;3.14;80.18;101227.53;1088015;54;20057;-81
2022/01/28 02:11:02;;;;;;;14.88;10.65;;;;;;;3.20;80.00;101222.00;1088675;47;20053;-82
2022/01/28 02:12:06;;;;;;;15.20;10.95;;;;;;;3.15;80.32;101225.78;1087884;54;20053;-80
2022/01/28 02:13:12;;;;;;;13.93;9.30;;;;;;;3.23;79.88;101236.88;1087838;54;20046;-81
2022/01/28 02:14:16;;;;;;;11.98;8.75;;;;;;;3.24;79.88;101230.66;1087707;54;20049;-81
2022/01/28 02:15:19;;;;;;;13.32;9.50;;;;;;;3.30;79.47;101240.94;1087795;54;20039;-80
2022/01/28 02:16:23;;;;;;;12.52;9.35;;;;;;;3.32;79.48;101228.53;1088072;54;20317;-80
2022/01/28 02:17:24;;;;;;;12.85;9.02;;;;;;;3.30;79.33;101224.25;1087758;54;20043;-81
2022/01/28 02:18:29;;;;;;;12.43;9.00;;;;;;;3.32;79.37;101228.53;1087956;54;20047;-81
2022/01/28 02:19:30;;;;;;;14.85;9.63;;;;;;;3.40;79.27;101233.47;1087855;54;20588;-80
2022/01/28 02:20:41;;;;;;;13.77;9.27;;;;;;;3.39;79.15;101229.09;1088036;54;20022;-82
2022/01/28 02:21:46;;;;;;;13.10;9.30;;;;;;;3.32;79.47;101239.09;1088259;54;20102;-81
2022/01/28 02:22:52;;;;;;;12.45;9.00;;;;;;;3.45;79.13;101227.97;1088260;54;20042;-80
2022/01/28 02:24:01;;;;;;;14.52;9.48;;;;;;;3.34;79.36;101228.44;1088134;54;20042;-81
2022/01/28 02:25:03;;;;;;;14.00;9.98;;;;;;;3.31;79.30;101218.03;1089567;39;20670;-80
2022/01/28 02:26:12;;;;;;;12.82;8.90;;;;;;;3.40;79.17;101214.97;1093358;39;20531;-80
2022/01/28 02:27:17;;;;;;;14.90;9.18;;;;;;;3.34;79.32;101207.28;1088268;54;20057;-80
2022/01/28 02:28:21;;;;;;;12.70;9.18;;;;;;;3.25;79.54;101222.66;1088182;54;20588;-80
2022/01/28 02:29:31;;;;;;;11.93;9.02;;;;;;;3.30;79.75;101221.59;1087823;54;20557;-80
2022/01/28 02:30:32;;;;;;;15.02;10.23;;;;;;;3.27;79.70;101226.09;1087979;54;20583;-81
2022/01/28 02:31:39;;;;;;;11.93;9.05;;;;;;;3.31;79.62;101218.03;1088273;54;20022;-81
2022/01/28 02:32:43;;;;;;;13.10;9.10;;;;;;;3.33;79.81;101224.06;1088265;54;20138;-80
2022/01/28 02:33:49;;;;;;;12.52;8.55;;;;;;;3.47;79.07;101212.88;1087502;54;20117;-81
2022/01/28 02:34:53;;;;;;;13.55;8.55;;;;;;;3.46;78.96;101216.44;1088155;54;20047;-80
2022/01/28 02:36:03;;;;;;;12.98;8.30;;;;;;;3.49;79.11;101225.13;1088315;54;20046;-81
2022/01/28 02:37:08;;;;;;;13.07;8.27;;;;;;;3.45;78.86;101220.03;1089393;31;20576;-80
2022/01/28 02:38:10;;;;;;;12.45;9.20;;;;;;;3.38;79.31;101228.22;1090353;46;20039;-81
2022/01/28 02:39:14;;;;;;;13.00;8.60;;;;;;;3.44;79.24;101221.81;1087941;54;20022;-80
2022/01/28 02:40:16;;;;;;;12.63;8.73;;;;;;;3.32;79.08;101223.22;1088098;54;20022;-80
2022/01/28 02:41:21;;;;;;;13.02;9.18;;;;;;;3.41;79.47;101225.47;1088072;54;20035;-81
2022/01/28 02:42:43;;;;;;;13.95;9.18;;;;;;;3.41;79.24;101229.88;1087875;54;20065;-80
2022/01/28 02:44:02;;;;;;;15.82;9.05;;;;;;;3.45;79.07;101228.81;1087788;54;20032;-79
2022/01/28 02:45:07;;;;;;;11.80;8.55;;;;;;;3.56;78.87;101226.53;1088088;54;20650;-80
2022/01/28 02:46:14;;;;;;;11.80;8.23;;;;;;;3.58;78.55;101231.75;1087967;54;20600;-80
2022/01/28 02:47:27;;;;;;;13.70;8.90;;;;;;;3.51;78.98;101227.69;1092451;39;20523;-80
2022/01/28 02:48:34;;;;;;;13.10;8.73;;;;;;;3.61;78.71;101231.63;1088017;54;20050;-79
2022/01/28 02:49:37;;;;;;;13.20;8.98;;;;;;;3.54;78.81;101233.69;1088040;54;20030;-80
2022/01/28 02:50:49;;;;;;;12.43;8.75;;;;;;;3.56;78.45;101233.59;1087844;54;20011;-80
2022/01/28 02:51:53;;;;;;;11.82;8.95;;;;;;;3.63;78.36;101228.91;1087769;54;20099;-79
2022/01/28 02:53:06;;;;;;;10.48;7.90;;;;;;;3.63;78.31;101232.41;1088132;46;20027;-80
2022/01/28 02:54:13;;;;;;;14.23;8.13;;;;;;;3.72;78.26;101236.41;1089802;46;20046;-79
2022/01/28 02:55:18;;;;;;;11.13;7.80;;;;;;;3.70;78.40;101230.31;1088858;46;20042;-80
2022/01/28 02:56:23;;;;;;;12.73;9.23;;;;;;;3.71;78.15;101237.31;1087844;54;20030;-80
2022/01/28 02:57:27;;;;;;;12.45;7.85;;;;;;;3.79;77.90;101237.81;1089634;39;20465;-80
2022/01/28 02:58:28;;;;;;;12.45;9.02;;;;;;;3.59;78.21;101233.47;1090286;39;20478;-80
2022/01/28 02:59:33;;;;;;;12.32;8.57;;;;;;;3.72;77.96;101231.13;1087792;54;20046;-80
2022/01/28 03:00:34;;;;;;;11.90;7.95;;;;;;;3.65;78.00;101227.88;1088022;54;20042;-81
2022/01/28 03:01:38;;;;;;;12.52;8.68;;;;;;;3.61;78.25;101230.75;1089076;46;20101;-81
2022/01/28 03:02:41;;;;;;;12.15;8.25;;;;;;;3.63;78.15;101231.53;1088276;54;20031;-80
2022/01/28 03:03:46;;;;;;;12.43;8.10;;;;;;;3.75;77.79;101242.41;1088232;54;20075;-81
2022/01/28 03:06:06;;;;;;;12.77;8.40;;;;;;;3.73;77.83;101240.78;1087645;54;20034;-81
2022/01/28 03:07:10;;;;;;;11.73;8.50;;;;;;;3.83;77.58;101244.69;1087732;54;20054;-81
2022/01/28 03:08:15;;;;;;;11.00;8.15;;;;;;;3.67;77.36;101239.25;1090370;46;20041;-80
2022/01/28 03:09:20;;;;;;;12.15;8.20;;;;;;;3.72;77.66;101241.69;1087883;54;20023;-79
2022/01/28 03:10:31;;;;;;;11.65;8.23;;;;;;;3.84;77.54;101234.97;1087839;54;20034;-80
2022/01/28 03:11:58;;;;;;;13.63;9.00;;;;;;;3.70;77.70;101243.53;1087295;54;20066;-80
2022/01/28 03:13:14;;;;;;;14.38;9.77;;;;;;;3.65;77.78;101240.28;1087324;54;20098;-81
2022/01/28 03:15:36;;;;;;;15.43;9.88;;;;;;;3.56;78.15;101230.97;1087391;54;20043;-80
2022/01/28 03:16:52;;;;;;;15.32;9.30;;;;;;;3.63;77.66;101236.84;1087894;46;20042;-81
2022/01/28 03:18:09;;;;;;;11.77;8.77;;;;;;;3.64;77.76;101235.91;1087899;54;20057;-81
2022/01/28 03:19:19;;;;;;;12.63;8.60;;;;;;;3.79;77.42;101237.81;1087940;54;20022;-80
2022/01/28 03:20:36;;;;;;;12.65;8.27;;;;;;;3.82;77.21;101239.50;1089022;46;20062;-81
2022/01/28 03:21:44;;;;;;;12.25;8.27;;;;;;;3.82;77.27;101235.03;1087801;54;20050;-81
2022/01/28 03:22:48;;;;;;;11.40;7.97;;;;;;;3.89;77.22;101238.28;1087728;54;20098;-80
2022/01/28 03:23:52;;;;;;;11.80;8.57;;;;;;;3.92;77.01;101238.09;1087561;54;20038;-81
2022/01/28 03:24:58;;;;;;;12.10;8.80;;;;;;;3.89;77.15;101233.81;1087536;54;20069;-83
2022/01/28 03:25:59;;;;;;;12.93;8.70;;;;;;;3.78;77.13;101236.09;1087672;54;20035;-80
2022/01/28 03:27:09;;;;;;;12.98;9.35;;;;;;;3.84;77.27;101237.63;1087855;46;20053;-80
2022/01/28 03:28:12;;;;;;;13.48;9.60;;;;;;;3.66;77.59;101242.84;1087756;46;20039;-80
2022/01/28 03:29:16;;;;;;;12.25;9.27;;;;;;;3.66;77.61;101237.53;1086228;54;20065;-81
2022/01/28 03:30:18;;;;;;;14.45;9.48;;;;;;;3.59;78.15;101238.75;1085921;54;20043;-79
2022/01/28 03:31:22;;;;;;;15.13;10.23;;;;;;;3.54;78.29;101244.25;1086570;54;20062;-80
2022/01/28 03:32:26;;;;;;;17.13;11.35;;;;;;;3.52;78.24;101243.47;1086462;39;20472;-80
2022/01/28 03:33:28;;;;;;;15.27;10.23;;;;;;;3.59;78.58;101247.53;1086317;54;20474;-79
2022/01/28 03:34:32;;;;;;;15.57;10.05;;;;;;;3.72;78.09;101246.97;1085827;39;20514;-80
2022/01/28 03:35:35;;;;;;;17.75;10.52;;;;;;;3.58;78.36;101240.56;1086303;54;20039;-81
2022/01/28 03:36:40;;;;;;;15.70;10.65;;;;;;;3.61;78.44;101250.13;1086836;54;20038;-79
2022/01/28 03:37:41;;;;;;;14.98;10.15;;;;;;;3.55;78.94;101238.06;1086572;54;20034;-80
2022/01/28 03:38:49;;;;;;;13.75;10.00;;;;;;;3.70;78.25;101252.34;1086514;54;20034;-80
2022/01/28 03:39:50;;;;;;;15.05;9.30;;;;;;;3.58;79.10;101250.25;1086840;54;20042;-79
2022/01/28 03:40:56;;;;;;;15.40;10.57;;;;;;;3.59;79.35;101247.53;1087767;39;20347;-80
2022/01/28 03:41:57;;;;;;;13.40;9.98;;;;;;;3.70;78.83;101256.78;1086986;54;20063;-79
2022/01/28 03:43:01;;;;;;;13.88;10.43;;;;;;;3.71;78.77;101259.38;1086717;54;20034;-79
2022/01/28 03:44:04;;;;;;;13.90;10.25;;;;;;;3.63;79.36;101263.28;1086621;54;20046;-79
2022/01/28 03:45:09;;;;;;;14.50;10.80;;;;;;;3.63;79.31;101260.63;1086774;47;20540;-81
2022/01/28 03:46:10;;;;;;;15.25;9.82;;;;;;;3.68;79.29;101258.66;1086894;54;20082;-80
2022/01/28 03:47:15;;;;;;;14.27;10.02;;;;;;;3.57;79.68;101262.66;1086828;54;20038;-80
2022/01/28 03:48:16;;;;;;;16.85;11.07;;;;;;;3.65;79.61;101256.13;1086671;54;20046;-79
2022/01/28 03:49:20;;;;;;;15.70;11.15;;;;;;;3.55;79.95;101272.44;1086910;54;20082;-80
2022/01/28 03:50:22;;;;;;;15.00;11.05;;;;;;;3.50;79.95;101277.03;1086868;54;20065;-79
2022/01/28 03:51:26;;;;;;;15.07;10.50;;;;;;;3.64;79.72;101272.94;1087086;54;20035;-80
2022/01/28 03:52:28;;;;;;;17.02;10.75;;;;;;;3.53;79.95;101276.91;1086769;54;20041;-80
2022/01/28 03:53:32;;;;;;;15.68;10.65;;;;;;;3.52;80.11;101284.94;1086774;54;20030;-80
2022/01/28 03:54:38;;;;;;;17.58;12.18;;;;;;;3.50;80.18;101286.78;1086880;46;20034;-80
2022/01/28 03:55:40;;;;;;;17.55;11.52;;;;;;;3.52;80.00;101288.41;1087068;54;20575;-80
2022/01/28 03:56:50;;;;;;;15.43;10.50;;;;;;;3.61;80.06;101287.16;1086880;54;20119;-81
2022/01/28 03:57:52;;;;;;;;;;;;;;;3.55;79.68;101296.22;1087148;54;20591;-81
2022/01/28 03:58:56;;;;;;;15.27;9.60;;;;;;;3.68;79.49;101287.75;1087853;54;20073;-80
2022/01/28 03:59:59;;;;;;;14.23;9.85;;;;;;;3.68;79.43;101290.38;1087166;54;20034;-80
2022/01/28 04:01:07;;;;;;;15.20;10.00;;;;;;;3.72;79.10;101289.31;1087146;54;20043;-81
2022/01/28 04:02:10;;;;;;;13.70;9.68;;;;;;;3.63;79.53;101284.44;1086893;54;20539;-80
2022/01/28 04:03:37;;;;;;;15.90;11.30;;;;;;;3.59;79.42;101295.13;1088406;39;20556;-80
2022/01/28 04:11:26;;;;;;;16.13;11.05;;;;;;;3.58;79.55;101296.09;1087635;31;20545;-78
2022/01/28 04:11:39;;;;;;;17.05;11.60;;;;;;;3.62;79.38;101299.47;1087815;54;20010;-80
2022/01/28 04:12:45;;;;;;;14.90;9.45;;;;;;;3.69;79.04;101300.00;1089113;39;20599;-80
2022/01/28 04:13:49;;;;;;;14.18;10.27;;;;;;;3.72;79.14;101302.53;1086695;54;20042;-80
2022/01/28 04:15:07;;;;;;;15.68;10.27;;;;;;;3.74;78.88;101300.69;1086702;54;20090;-79
2022/01/28 04:16:27;;;;;;;16.17;9.68;;;;;;;3.76;78.91;101301.47;1086466;54;20158;-80
2022/01/28 04:17:32;;;;;;;14.73;9.85;;;;;;;3.68;78.89;101308.91;1086552;54;20030;-79
2022/01/28 04:18:33;;;;;;;15.80;10.57;;;;;;;3.59;79.21;101313.66;1086767;47;20046;-79
2022/01/28 04:19:38;;;;;;;16.73;10.80;;;;;;;3.72;78.91;101302.53;1086683;46;20106;-79
2022/01/28 04:20:39;;;;;;;14.70;9.98;;;;;;;3.68;79.19;101312.41;1086439;54;20122;-80
2022/01/28 04:21:43;;;;;;;15.90;11.10;;;;;;;3.58;79.31;101314.59;1086600;54;20030;-79
2022/01/28 04:22:45;;;;;;;15.70;10.93;;;;;;;3.63;79.23;101306.47;1086635;54;20030;-80
2022/01/28 04:23:49;;;;;;;16.27;10.90;;;;;;;3.63;79.08;101306.47;1090048;39;20572;-79
2022/01/28 04:24:54;;;;;;;16.60;11.30;;;;;;;3.48;79.04;101302.72;1086866;46;20628;-80
2022/01/28 04:25:58;;;;;;;17.95;12.32;;;;;;;3.47;79.47;101301.00;1086806;54;20030;-79
2022/01/28 04:27:02;;;;;;;16.48;11.35;;;;;;;3.55;79.28;101316.50;1087026;54;20038;-78
2022/01/28 04:28:06;;;;;;;20.40;11.77;;;;;;;3.46;79.35;101308.97;1087480;54;20751;-81
2022/01/28 04:29:08;;;;;;;15.52;11.02;;;;;;;3.59;78.99;101313.66;1087040;39;20456;-80
2022/01/28 04:30:13;;;;;;;17.20;10.82;;;;;;;3.58;78.92;101311.97;1087093;54;20127;-79
2022/01/28 04:31:15;;;;;;;16.55;11.98;;;;;;;3.53;79.38;101318.38;1088829;39;20457;-80
2022/01/28 04:32:20;;;;;;;17.15;11.55;;;;;;;3.43;79.38;101320.56;1086468;54;20030;-80
2022/01/28 04:33:21;;;;;;;15.13;10.48;;;;;;;3.56;79.63;101319.09;1087232;39;20448;-79
2022/01/28 04:34:26;;;;;;;17.88;11.52;;;;;;;3.47;79.54;101324.78;1087558;46;20040;-80
2022/01/28 04:35:28;;;;;;;16.10;12.10;;;;;;;3.51;79.51;101325.53;1086970;47;20041;-79
2022/01/28 04:36:36;;;;;;;14.95;10.90;;;;;;;3.54;79.25;101322.75;1087205;54;22188;-81
2022/01/28 04:37:50;;;;;;;14.88;11.10;;;;;;;3.55;79.38;101327.97;1087886;54;20654;-81
2022/01/28 04:39:02;;;;;;;16.40;11.70;;;;;;;3.53;79.39;101327.16;1088037;54;20034;-81
2022/01/28 04:40:13;;;;;;;16.25;10.95;;;;;;;3.42;79.61;101332.06;1090428;39;20181;-80
2022/01/28 04:41:24;;;;;;;15.90;10.68;;;;;;;3.47;79.70;101342.44;1091263;46;20038;-81
2022/01/28 04:42:44;;;;;;;14.18;10.27;;;;;;;3.52;79.31;101330.72;1088016;54;20018;-81
2022/01/28 04:43:50;;;;;;;15.27;10.98;;;;;;;3.59;79.05;101341.91;1087971;54;20038;-80
2022/01/28 04:45:02;;;;;;;18.40;11.98;;;;;;;3.57;79.04;101341.09;1087853;54;20030;-80
2022/01/28 04:46:09;;;;;;;15.02;10.40;;;;;;;3.59;79.22;101336.59;1087990;54;20074;-81
2022/01/28 04:47:19;;;;;;;17.95;11.95;;;;;;;3.56;79.40;101345.53;1087868;54;20086;-81
2022/01/28 04:48:30;;;;;;;16.25;10.82;;;;;;;3.49;79.31;101349.41;1087966;54;20651;-80
2022/01/28 04:49:44;;;;;;;18.23;11.48;;;;;;;3.59;78.95;101347.19;1088071;54;20545;-80
2022/01/28 04:51:02;;;;;;;18.10;10.80;;;;;;;3.47;79.35;101335.38;1088292;39;20465;-81
2022/01/28 04:52:33;;;;;;;18.67;11.70;;;;;;;3.35;80.00;101327.97;1087866;54;20023;-80
2022/01/28 04:55:04;;;;;;;19.20;11.55;;;;;;;3.36;79.80;101333.19;1088015;54;20038;-82
2022/01/28 04:56:25;;;;;;;16.92;11.35;;;;;;;3.20;80.14;101340.06;1087939;54;20019;-80
2022/01/28 04:57:38;;;;;;;18.85;11.65;;;;;;;3.28;79.77;101346.75;1089252;31;20536;-80
2022/01/28 04:58:55;;;;;;;16.33;11.70;;;;;;;3.28;79.79;101338.81;1087760;54;20069;-81
2022/01/28 05:00:07;;;;;;;18.77;11.57;;;;;;;3.21;80.23;101336.50;1087454;54;20068;-80
2022/01/28 05:01:34;;;;;;;17.80;11.98;;;;;;;3.23;80.31;101342.59;1087753;54;20050;-79
2022/01/28 05:02:55;;;;;;;18.83;11.65;;;;;;;3.25;80.23;101346.88;1088386;31;20568;-79
2022/01/28 05:04:12;;;;;;;17.10;10.82;;;;;;;3.25;80.13;101341.59;1087696;54;20046;-79
2022/01/28 05:08:23;;;;;;;17.73;11.25;;;;;;;3.33;80.01;101341.25;1087025;54;20035;-80
2022/01/28 05:14:00;;;;;;;16.50;10.65;;;;;;;3.27;79.64;101342.38;1089157;39;20559;-80
2022/01/28 05:16:51;;;;;;;17.08;11.07;;;;;;;3.39;79.68;101342.78;1087960;54;20219;-81
2022/01/28 05:23:32;;;;;;;19.88;11.25;;;;;;;3.35;79.62;101335.91;1085933;54;20026;-79
2022/01/28 05:25:09;;;;;;;15.95;10.40;;;;;;;3.39;79.50;101342.78;1085933;54;20045;-81
2022/01/28 05:27:38;;;;;;;13.32;9.77;;;;;;;3.44;79.09;101346.06;1086245;54;20085;-79
2022/01/28 05:28:48;;;;;;;15.82;11.20;;;;;;;3.41;79.18;101349.72;1087170;54;20050;-81
2022/01/28 05:29:52;;;;;;;18.98;11.35;;;;;;;3.32;79.48;101349.25;1087128;54;20031;-80
2022/01/28 05:30:53;;;;;;;14.80;10.73;;;;;;;3.33;79.62;101356.25;1086669;54;20042;-80
2022/01/28 05:31:57;;;;;;;18.15;10.98;;;;;;;3.39;79.27;101354.22;1087669;46;20010;-79
2022/01/28 05:32:59;;;;;;;19.75;12.60;;;;;;;3.30;79.77;101359.03;1088806;39;20586;-81
2022/01/28 05:34:03;;;;;;;17.08;11.38;;;;;;;3.25;79.44;101354.81;1087193;54;20034;-80
2022/01/28 05:35:06;;;;;;;20.50;12.10;;;;;;;3.34;79.40;101356.19;1087199;54;20014;-79
2022/01/28 05:36:10;;;;;;;18.80;12.18;;;;;;;3.24;79.68;101361.00;1087130;54;20038;-79
2022/01/28 05:37:14;;;;;;;17.25;11.80;;;;;;;3.32;79.72;101359.81;1087009;54;21872;-82
2022/01/28 05:38:16;;;;;;;18.77;12.00;;;;;;;3.28;79.61;101356.44;1087473;54;20055;-81
2022/01/28 05:39:20;;;;;;;17.95;11.27;;;;;;;3.32;79.74;101359.81;1087588;46;20597;-81
2022/01/28 05:40:21;;;;;;;17.27;11.95;;;;;;;3.34;79.66;101358.84;1087471;54;20030;-80
2022/01/28 05:41:25;;;;;;;16.33;11.38;;;;;;;3.41;79.41;101356.78;1087686;54;20041;-80
2022/01/28 05:42:27;;;;;;;16.90;11.73;;;;;;;3.47;79.37;101360.94;1087599;54;20029;-79
2022/01/28 05:43:31;;;;;;;15.38;10.65;;;;;;;3.51;78.93;101358.09;1088860;46;20042;-80
2022/01/28 05:44:35;;;;;;;18.50;12.38;;;;;;;3.30;79.37;101367.81;1092707;46;20054;-80
2022/01/28 05:45:40;;;;;;;16.20;11.13;;;;;;;3.42;79.16;101369.94;1087803;54;20030;-79
2022/01/28 05:46:41;;;;;;;18.30;10.80;;;;;;;3.29;79.71;101371.38;1087506;54;20030;-81
2022/01/28 05:47:45;;;;;;;18.08;12.38;;;;;;;3.26;79.71;101372.38;1087893;54;20031;-80
2022/01/28 05:48:48;;;;;;;16.10;10.52;;;;;;;3.44;79.43;101375.16;1087835;54;20034;-81
2022/01/28 05:49:52;;;;;;;18.30;11.95;;;;;;;3.35;79.50;101378.19;1087879;54;20038;-80
2022/01/28 05:50:54;;;;;;;15.98;10.52;;;;;;;3.46;79.29;101381.25;1087796;54;20073;-80
2022/01/28 05:51:58;;;;;;;19.40;11.75;;;;;;;3.37;79.46;101389.56;1087936;54;20034;-81
2022/01/28 05:53:01;;;;;;;17.70;11.23;;;;;;;3.41;79.08;101391.13;1088193;47;20042;-80
2022/01/28 05:54:05;;;;;;;18.80;12.10;;;;;;;3.31;79.23;101400.41;1087684;54;20027;-81
2022/01/28 05:55:08;;;;;;;22.50;12.10;;;;;;;3.32;79.14;101396.81;1087783;54;20038;-81
2022/01/28 05:56:12;;;;;;;18.23;11.43;;;;;;;3.29;79.36;101403.09;1089966;46;20026;-81
2022/01/28 05:57:14;;;;;;;17.30;11.52;;;;;;;3.39;79.23;101409.72;1088277;47;20815;-80
2022/01/28 05:58:19;;;;;;;18.90;12.38;;;;;;;3.32;79.49;101413.56;1086955;54;20057;-81